Date,TemperatureHighF,TemperatureAvgF,TemperatureLowF,DewpointHighF,DewpointAvgF,DewpointLowF,HumidityHigh,HumidityAvg,HumidityLow,PressureMaxIn,PressureMinIn,WindSpeedMaxMPH,WindSpeedAvgMPH,GustSpeedMaxMPH,PrecipitationSumIn
2012-6-12,75.9,74.5,73.8,73.9,73.4,72.1,97,96,91,29.87,29.85,3,0,8,1.35
2012-6-13,85.5,75.8,72.6,73.7,72.4,71.3,98,90,65,29.86,29.83,2,0,7,0.00
2012-6-14,82.6,77.0,71.4,70.3,66.6,64.5,79,71,58,30.06,29.97,4,1,9,0.00
2012-6-15,83.8,72.5,62.0,67.7,62.4,57.9,88,71,51,30.11,30.03,4,1,10,0.00
2012-6-16,80.7,71.2,60.1,67.0,62.2,54.9,85,74,54,30.16,30.07,5,1,11,0.00
2012-6-17,81.4,71.0,58.7,64.6,59.9,55.5,90,70,45,30.13,29.97,4,1,9,0.00
2012-6-18,82.2,76.4,64.5,66.0,64.0,61.1,90,67,50,30.08,30.01,5,2,9,0.00
2012-6-19,84.3,74.5,62.9,69.7,65.9,61.6,97,77,51,30.14,30.08,4,1,7,0.00
2012-6-20,85.7,76.1,67.6,72.3,69.1,66.4,97,80,58,30.15,30.05,3,1,5,0.00
2012-6-21,87.4,77.0,68.0,74.6,69.3,65.8,97,79,62,30.06,29.90,4,1,7,0.00
2012-6-22,87.7,77.7,68.4,74.2,69.1,65.9,95,76,53,29.93,29.83,4,2,8,0.00
2012-6-23,88.4,79.3,69.5,76.5,72.3,67.7,96,80,59,29.97,29.86,5,2,9,0.00
2012-6-24,87.2,80.0,73.4,76.9,74.7,72.3,97,84,67,29.97,29.87,5,2,9,0.00
2012-6-25,82.4,77.6,73.9,75.2,73.1,71.8,94,86,75,29.89,29.69,4,1,7,0.00
2012-6-26,78.9,73.6,68.2,72.6,63.3,55.6,96,72,49,29.80,29.63,3,1,5,0.00
2012-6-27,88.5,74.9,59.8,64.6,57.4,53.8,88,58,34,29.93,29.77,3,1,6,0.00
2012-6-28,94.0,77.1,61.5,70.9,63.3,56.3,97,67,32,30.01,29.89,4,1,8,0.00
2012-6-29,100.5,85.4,74.9,79.5,72.8,66.4,84,68,36,29.89,29.73,4,2,6,0.00
2012-6-30,103.6,87.3,76.0,81.4,77.1,70.4,95,74,35,29.86,29.75,5,1,6,0.00
2012-7-1,97.9,84.6,77.1,83.8,76.2,61.4,96,77,48,30.05,29.82,7,2,14,0.00
2012-7-2,94.9,83.6,74.0,74.0,69.1,64.7,79,63,43,30.03,29.86,5,2,7,0.00
2012-7-3,95.0,83.8,74.7,76.9,73.7,70.3,88,73,47,29.97,29.88,5,2,7,0.00
2012-7-4,98.7,86.1,75.9,77.4,73.7,68.5,93,69,39,29.98,29.87,4,2,7,0.00
2012-7-5,96.9,83.1,70.8,81.9,75.9,66.7,96,80,52,29.97,29.82,4,2,7,1.81
2012-7-6,94.6,84.7,78.1,79.7,76.1,72.2,94,77,51,29.94,29.86,5,2,8,0.00
2012-7-7,96.0,84.7,76.1,79.3,75.1,71.9,88,74,50,30.00,29.91,5,2,7,0.00
2012-7-8,98.5,86.6,78.6,80.1,75.9,72.0,89,72,44,29.98,29.83,4,2,9,0.00
2012-7-9,97.2,86.2,79.8,79.7,75.6,70.8,86,72,46,29.90,29.79,6,2,10,0.00
2012-7-10,91.6,76.6,71.7,80.0,72.4,68.9,98,88,61,30.00,29.86,7,1,9,2.75
2012-7-11,86.3,76.2,72.0,76.8,72.8,69.4,99,90,70,30.05,29.94,4,1,5,1.29
2012-7-12,73.8,73.0,71.8,71.6,71.1,70.6,97,94,93,30.06,30.02,2,0,2,0.26
2012-7-13,85.4,79.4,75.0,78.1,75.3,74.1,98,88,75,30.14,30.05,5,1,8,0.01
2012-7-14,87.5,81.0,73.5,76.6,74.3,72.3,98,81,65,30.18,30.08,5,2,10,0.00
2012-7-15,87.4,80.6,72.9,76.3,73.5,71.7,97,80,62,30.16,30.05,5,2,9,0.00
2012-7-16,89.1,81.3,72.9,76.5,74.0,71.7,97,80,61,30.06,29.90,5,1,11,0.00
2012-7-17,91.2,81.5,75.4,78.5,74.9,72.7,92,81,60,29.97,29.88,5,1,7,0.00
2012-7-18,89.7,81.8,74.2,78.3,74.2,71.2,93,79,60,29.99,29.91,5,2,8,0.00
2012-7-19,92.8,82.9,77.5,78.9,74.9,72.7,91,78,57,30.03,29.95,4,2,9,0.08
2012-7-20,91.9,90.5,89.2,78.6,75.7,74.0,67,62,58,29.94,29.89,4,3,5,0.00
2012-7-21,77.4,77.3,77.2,71.1,70.7,70.5,81,80,80,29.95,29.95,2,2,3,0.00
2012-7-24,90.5,88.3,86.4,77.3,76.7,75.9,71,69,66,29.96,29.94,4,3,6,0.00
2012-7-26,92.4,90.9,89.7,80.3,79.9,78.8,73,70,66,29.89,29.88,2,2,4,0.00
2012-7-29,90.4,79.9,72.6,80.3,74.1,69.7,95,83,60,29.95,29.83,5,1,8,0.25
2012-7-30,73.0,72.5,71.8,72.4,71.6,70.6,98,97,96,29.96,29.93,5,4,5,2.89
2012-8-2,75.6,75.4,75.1,74.1,73.9,73.4,95,95,95,29.84,29.84,0,0,0,0.00
2012-8-5,86.4,82.3,76.9,78.5,75.1,72.7,94,79,71,30.17,30.10,6,2,7,0.00
2012-8-6,88.1,79.7,73.1,77.5,74.6,72.1,97,85,68,30.10,29.98,4,1,6,0.00
2012-8-7,83.5,78.3,73.9,77.6,75.0,72.5,97,90,73,30.01,29.93,3,1,6,0.66
2012-8-11,74.1,72.9,71.1,72.0,71.2,70.2,97,94,93,29.93,29.87,1,1,3,0.89
2012-8-12,84.7,77.2,70.5,76.7,73.7,69.5,98,89,76,29.96,29.89,4,1,8,0.79
2012-8-13,82.7,79.0,76.9,76.2,75.2,74.3,94,88,80,29.96,29.92,0,0,1,0.00
2012-8-14,92.8,81.9,73.4,76.5,72.8,66.7,96,76,47,29.96,29.84,4,1,5,0.00
2012-8-15,80.1,80.0,79.9,75.1,75.0,74.8,85,85,84,29.90,29.90,1,1,3,0.00
2012-8-16,91.1,84.8,77.5,75.0,73.0,68.1,90,69,49,29.97,29.89,4,1,5,0.00
2012-8-17,89.6,78.6,71.7,77.7,73.2,70.2,96,85,61,29.95,29.80,5,1,7,0.12
2012-8-18,86.8,76.9,70.7,77.4,73.0,68.7,97,88,70,29.85,29.76,4,1,5,0.76
2012-8-19,87.7,78.2,72.3,77.9,74.3,70.5,98,88,66,29.85,29.79,5,1,8,0.84
2012-8-20,86.3,77.2,71.6,74.3,72.6,70.3,97,87,64,29.92,29.80,4,1,9,0.27
2012-8-21,81.5,75.5,71.1,74.2,72.3,70.2,98,90,75,30.00,29.89,4,1,5,0.73
2012-8-22,84.3,75.8,71.7,76.6,72.7,70.5,97,91,70,30.03,29.96,3,1,6,0.42
2012-8-23,81.9,73.4,69.7,74.8,71.3,68.5,99,93,71,30.06,29.98,4,1,6,2.20
2012-8-24,73.7,70.2,67.5,71.0,68.7,65.5,99,95,84,30.07,29.99,2,0,4,0.23
2012-8-25,83.8,73.1,67.0,69.3,66.9,65.2,96,82,58,30.08,30.01,3,1,8,0.00
2012-8-26,69.5,68.4,67.2,66.8,66.1,65.4,94,92,91,30.09,30.06,0,0,1,0.00
2012-8-29,74.1,73.3,72.4,72.9,72.5,71.8,98,97,96,29.98,29.91,2,0,5,0.91
2012-8-30,81.5,75.8,72.1,76.1,73.5,71.6,99,93,78,30.11,29.94,2,0,3,0.00
2012-8-31,87.3,78.6,70.8,77.4,74.1,70.2,99,87,70,30.20,30.08,4,1,7,0.01
2012-9-1,93.8,82.6,74.5,80.0,76.3,73.2,97,83,57,30.11,29.98,3,1,6,0.00
2012-9-2,94.4,83.6,76.0,79.5,76.6,74.1,95,81,56,30.01,29.89,4,1,5,0.00
2012-9-3,88.6,81.4,75.6,78.5,75.4,73.5,96,83,67,30.01,29.93,5,2,9,0.00
2012-9-4,85.6,79.8,72.7,75.0,72.7,71.2,96,80,63,30.00,29.90,4,2,10,0.00
2012-9-5,88.3,81.1,75.5,76.5,74.2,72.5,93,80,64,29.95,29.85,5,2,7,0.00
2012-9-6,90.3,81.5,75.3,77.8,75.2,73.0,95,82,58,29.94,29.84,4,1,7,0.00
2012-9-7,86.8,79.1,74.2,77.1,74.7,72.7,96,87,71,29.92,29.82,4,1,5,0.02
2012-9-8,90.1,79.8,73.5,79.4,75.3,71.2,98,87,63,29.83,29.70,5,1,13,0.76
2012-9-9,82.3,75.2,67.2,73.5,69.4,63.2,96,83,64,29.92,29.72,3,1,7,0.00
2012-9-10,84.2,71.1,60.1,63.0,60.3,55.9,96,72,40,30.10,29.92,4,1,7,0.00
2012-9-11,83.4,71.6,58.4,61.2,56.9,51.9,92,64,38,30.24,30.09,4,1,7,0.00
2012-9-16,72.3,71.3,70.9,68.5,68.3,68.1,92,90,88,30.05,30.03,0,0,0,0.00
2012-9-17,83.8,76.2,68.1,73.5,70.4,66.9,97,83,65,30.04,29.92,5,2,9,0.00
2012-9-18,83.9,78.4,72.9,77.5,73.5,69.7,95,85,78,29.92,29.71,8,3,11,0.83
2012-9-19,78.2,71.3,64.9,72.5,67.4,60.5,98,88,75,30.05,29.81,3,1,6,0.00
2012-9-20,78.0,69.5,64.2,66.5,62.8,59.6,91,80,65,30.09,29.99,2,0,6,0.00
2012-9-21,82.3,70.2,60.0,66.1,62.8,58.7,97,79,50,30.05,29.97,3,1,7,0.00
2012-9-22,65.3,64.0,63.3,63.0,62.2,61.8,95,94,92,29.98,29.97,0,0,0,0.00
2012-9-23,83.8,74.8,59.8,60.1,57.3,54.2,90,58,40,30.04,29.98,3,1,4,0.00
2012-9-24,78.0,66.5,56.4,57.7,54.7,49.8,92,69,40,30.15,30.03,4,1,6,0.00
2012-9-25,78.4,66.2,52.8,63.0,57.1,50.4,97,76,39,30.20,30.13,4,1,9,0.00
2012-9-26,82.2,64.3,57.0,65.3,59.9,55.9,98,87,56,30.19,30.13,3,0,4,0.00
2012-9-29,84.0,77.9,69.9,72.6,69.6,65.7,90,76,61,29.94,29.81,3,1,6,0.00
2012-9-30,72.6,69.6,67.7,67.2,66.3,65.0,95,90,82,29.87,29.81,1,0,4,0.01
2012-10-1,83.4,74.6,67.9,77.1,71.9,66.5,98,92,79,29.83,29.75,5,2,8,0.01
2012-10-2,84.2,79.4,75.1,78.6,76.2,71.3,98,90,79,29.92,29.74,6,3,8,0.79
2012-10-3,86.0,78.8,75.6,73.9,72.3,67.9,88,81,55,30.15,30.04,2,1,5,0.17
2012-10-4,83.9,75.6,70.2,73.8,70.6,68.5,96,85,70,30.19,30.11,3,1,6,0.00
2012-10-5,84.8,72.5,65.8,69.7,65.7,59.3,98,82,45,30.15,29.98,4,1,5,0.00
2012-10-6,83.4,72.6,62.2,70.2,66.6,61.0,99,83,58,29.99,29.84,5,1,9,0.00
2012-10-7,83.1,73.4,62.5,74.5,68.9,57.3,98,86,66,30.02,29.88,4,1,7,0.00
2012-10-8,64.9,58.1,52.0,59.7,54.8,50.9,96,89,83,30.10,29.99,4,1,7,0.40
2012-10-9,60.4,55.5,52.1,55.7,53.0,51.0,97,91,83,30.09,30.01,3,2,6,0.00
2012-10-10,55.5,53.5,51.0,53.5,51.7,49.7,97,94,92,30.07,30.05,0,0,1,0.00
2012-10-13,70.9,62.1,55.9,56.3,53.0,51.4,86,73,58,30.29,30.26,3,0,3,0.00
2012-10-14,80.1,65.7,52.9,66.4,58.4,50.4,97,79,47,30.27,30.01,4,1,6,0.00
2012-10-15,81.2,70.0,59.8,70.4,65.0,58.6,97,85,65,30.01,29.70,3,1,10,0.03
2012-10-16,72.7,61.1,50.2,61.9,50.4,45.5,93,70,42,29.93,29.79,3,1,6,0.00
2012-10-17,70.3,59.1,50.4,58.4,53.9,49.0,97,84,62,29.98,29.88,3,0,5,0.00
2012-10-18,78.2,66.2,54.1,69.7,62.9,53.0,99,90,68,29.90,29.76,4,1,8,0.00
2012-10-19,79.5,69.6,54.9,68.3,58.9,46.5,98,73,34,29.79,29.70,4,1,8,0.65
2012-10-20,76.2,62.2,49.6,53.4,50.6,46.0,95,69,37,29.89,29.76,4,1,7,0.00
2012-10-21,74.2,60.9,50.5,52.2,47.9,44.9,94,65,41,30.08,29.88,3,1,5,0.00
2012-10-25,78.3,71.6,65.6,66.9,64.8,62.9,91,80,67,30.04,30.00,4,1,10,0.00
2012-10-26,75.0,68.6,62.9,65.6,63.1,57.6,95,83,71,30.00,29.75,2,1,6,0.00
2012-10-27,68.6,65.4,63.0,64.6,62.4,59.0,96,90,81,29.74,29.47,4,2,12,0.33
2012-10-28,68.1,63.6,58.0,58.9,55.0,51.9,81,74,63,29.52,29.46,5,3,14,0.00
2012-10-29,59.6,53.9,48.3,52.3,41.9,35.3,85,65,49,29.54,29.44,7,4,14,0.00
2012-10-30,50.1,48.2,47.7,36.6,35.5,33.8,65,61,56,29.50,29.43,5,3,9,0.00
2012-11-1,43.5,42.2,40.9,37.2,36.6,35.8,82,81,78,29.86,29.85,0,0,0,0.00
2012-11-2,74.3,53.6,35.4,48.5,39.6,32.5,91,63,34,29.94,29.77,4,1,8,0.00
2012-11-3,69.2,53.2,40.0,46.8,41.4,35.2,94,68,34,30.09,29.91,3,1,5,0.00
2012-11-4,81.3,61.7,46.7,61.8,54.3,44.0,99,80,46,30.01,29.84,5,1,7,0.24
2012-11-5,63.2,51.8,46.0,49.7,44.5,39.9,96,78,48,30.04,29.89,3,1,5,0.03
2012-11-6,54.2,45.8,42.7,44.6,39.9,36.0,92,80,69,30.02,29.84,2,1,6,0.00
2012-11-7,57.3,45.2,37.3,43.5,38.2,33.8,94,78,52,29.91,29.78,4,1,5,0.00
2012-11-8,62.9,45.4,34.1,41.4,36.0,30.2,97,74,30,30.08,29.91,4,1,8,0.00
2012-11-9,64.4,46.4,32.3,43.7,36.4,30.3,95,73,31,30.24,30.08,3,1,5,0.00
2012-11-10,69.3,50.6,36.1,50.1,42.7,34.8,98,78,39,30.35,30.23,4,1,7,0.00
2012-11-11,72.0,58.8,43.8,61.3,53.9,42.5,98,85,67,30.43,30.34,5,2,11,0.00
2012-11-12,76.8,66.5,57.3,65.7,61.6,55.7,98,85,67,30.34,30.16,5,1,8,0.00
2012-11-13,73.7,61.0,47.8,65.4,56.9,44.4,98,87,73,30.28,30.11,3,1,6,0.00
2012-11-14,47.7,46.2,45.6,44.5,42.8,41.4,92,88,85,30.29,30.26,2,1,5,0.00
2012-11-15,50.7,45.9,41.9,49.9,44.7,40.6,98,95,89,30.29,30.13,5,1,7,0.66
2012-11-16,60.5,50.7,45.9,49.2,46.0,41.2,97,85,65,30.30,30.16,3,1,4,0.00
2012-11-17,55.2,49.6,40.9,48.2,43.6,37.3,88,80,73,30.33,30.26,2,1,8,0.00
2012-11-18,54.7,52.2,48.9,52.0,49.7,45.9,96,91,80,30.27,30.13,3,2,7,0.74
2012-11-19,61.0,55.2,52.2,53.6,50.9,48.2,91,86,76,30.15,30.05,3,2,9,0.00
2012-11-20,63.4,53.7,47.0,53.1,49.6,45.4,96,86,69,30.09,29.98,3,1,7,0.00
2012-11-21,61.8,50.5,42.9,48.2,44.4,38.2,97,81,59,30.08,30.00,3,1,7,0.00
2012-11-22,64.5,48.2,37.8,41.2,36.6,32.1,91,68,30,30.15,30.07,3,1,7,0.00
2012-11-23,69.3,49.4,32.9,49.3,40.0,31.3,96,74,37,30.14,29.87,4,1,7,0.00
2012-11-24,59.7,49.4,34.0,46.2,36.6,28.3,91,64,38,30.08,29.86,4,1,9,0.00
2012-11-25,55.4,40.7,27.9,38.0,29.8,24.3,93,68,35,30.19,30.06,4,1,6,0.00
2012-11-26,67.2,46.4,30.9,42.9,35.2,27.9,98,71,23,30.20,30.10,4,1,8,0.00
2012-11-27,61.0,48.8,36.0,51.5,43.9,33.6,97,85,54,30.17,30.05,2,0,3,0.26
2012-11-28,57.6,47.6,34.8,49.0,41.0,33.2,97,80,51,30.36,30.12,3,1,5,0.01
2012-11-29,57.7,42.0,29.9,40.2,34.2,28.6,98,78,36,30.44,30.33,4,1,8,0.00
2012-11-30,63.6,49.8,31.9,49.1,42.2,30.6,96,78,45,30.38,30.27,4,1,6,0.00
2012-12-1,67.0,51.5,39.9,53.3,46.2,38.9,98,84,55,30.37,30.28,3,1,7,0.00
2012-12-2,67.2,54.0,43.9,58.9,51.3,42.8,98,91,72,30.38,30.24,4,1,6,0.00
2012-12-3,76.2,57.8,45.8,62.6,53.7,45.0,100,88,55,30.29,30.20,3,1,5,0.00
2012-12-4,73.7,61.6,52.9,61.7,57.8,51.8,98,88,63,30.32,30.19,4,1,8,0.00
2012-12-5,75.9,61.4,48.5,59.4,54.7,47.4,99,81,46,30.19,30.05,4,1,7,0.00
2012-12-6,61.8,55.2,49.7,57.6,47.1,41.4,90,75,61,30.19,30.09,4,1,8,0.00
2012-12-7,65.6,56.0,49.1,60.8,51.8,43.1,95,86,76,30.10,29.94,3,1,8,0.00
2012-12-12,43.6,43.2,42.5,42.5,42.1,41.4,96,96,96,30.21,30.15,1,1,3,0.42
2012-12-19,44.5,44.1,43.5,42.6,42.2,41.6,94,93,93,30.08,30.07,0,0,0,0.00
2012-12-20,70.3,55.9,38.9,64.6,51.6,37.6,97,86,64,30.08,29.55,8,3,14,0.37
2012-12-21,63.9,54.7,45.6,60.6,46.8,33.3,90,75,61,29.67,29.56,10,7,17,0.01
2012-12-22,53.3,45.0,37.0,29.1,25.1,21.8,69,48,30,30.12,30.03,6,2,12,0.00
2012-12-23,55.1,43.1,28.7,41.7,33.2,26.1,92,70,42,30.17,30.05,3,1,7,0.00
2012-12-24,62.1,50.5,38.3,47.3,39.5,32.9,93,68,40,30.08,29.90,4,1,7,0.05
2012-12-25,59.8,51.4,41.6,52.6,48.6,40.3,98,90,76,30.07,29.91,3,1,6,0.18
2012-12-26,68.9,57.5,43.2,64.4,52.0,33.9,99,83,54,29.95,29.43,9,4,17,1.09
2012-12-27,54.1,43.4,36.0,39.2,35.1,31.5,93,74,51,30.02,29.71,6,2,10,0.00
2012-12-28,51.9,42.2,33.5,41.8,36.1,30.1,96,80,58,30.13,29.93,2,0,3,0.00
2012-12-29,55.1,48.8,43.4,49.3,44.3,36.4,97,85,71,29.96,29.67,8,3,15,0.56
2012-12-30,50.0,39.7,28.5,36.4,28.8,23.9,90,68,38,30.41,29.97,5,2,9,0.00
2012-12-31,57.0,40.9,25.2,44.9,33.3,23.5,95,77,40,30.41,30.14,5,1,6,0.00
2013-1-1,65.8,55.7,48.5,54.8,50.0,44.1,91,81,68,30.14,29.90,4,1,5,0.00